Flight Track Log - Related Links

Times and Time Zones

All times are in EDT time to prevent confusion due to time zone crossing. See the CTL17 flight status page for this flight to view local times or setup timezone preferences in your user account.

Time Position Orientation Groundspeed Altitude Reporting Facility
EDT Latitude Longitude Course Direction KTS MPH feet Rate Location/Type
Mon 04:47:00 PM 43.3619 -84.0057 160° South  Level Estimated
Mon 04:48:00 PM 43.3366 -83.9838 148° Southeast  Level FlightAware Approximate
Mon 04:49:00 PM 43.3080 -83.9718 160° South  Level Estimated
Mon 04:50:00 PM 43.2807 -83.9553 156° South  Level FlightAware Approximate
Mon 04:51:00 PM 43.2533 -83.9388 156° South  Level FlightAware Approximate
Mon 04:52:00 PM 43.2247 -83.9271 163° South  Level Estimated
Mon 04:53:00 PM 43.1965 -83.9134 161° South  Level FlightAware Approximate
Mon 04:53:25 PM 43.0208 -83.8378 160° South 170 196 5,000  Level Cleveland Center
Mon 04:54:00 PM 43.1683 -83.8997 161° South  Level FlightAware Approximate
Mon 04:54:51 PM 42.9592 -83.8033 158° South 169 194 5,100  Level Cleveland Center
Mon 04:55:00 PM 43.1401 -83.8861 161° South  Level FlightAware Approximate
Mon 04:55:52 PM 42.9119 -83.7753 156° South 178 205 5,000  Level Cleveland Center
Mon 04:56:00 PM 43.1115 -83.8746 160° South  Level Estimated
Mon 04:56:53 PM 42.8647 -83.7531 161° South 173 199 5,000  Level Cleveland Center
Mon 04:57:00 PM 43.0835 -83.8603 160° South  Level FlightAware Approximate
Mon 04:58:00 PM 43.0555 -83.8461 160° South  Level FlightAware Approximate
Mon 04:58:00 PM 42.8344 -83.7340 155° Southeast  Level FlightAware Approximate
Mon 04:58:54 PM 42.7739 -83.7172 155° Southeast 179 206 5,100  Level Cleveland Center
Mon 04:59:00 PM 43.0275 -83.8318 160° South  Level FlightAware Approximate
Mon 04:59:55 PM 42.7244 -83.7006 166° South 175 201 4,700  Level Cleveland Center
Mon 05:00:56 PM 42.6708 -83.6811 165° South 194 223 3,700 -797 Descending Cleveland Center
Mon 05:02:03 PM 42.6150 -83.6614 165° South 189 217 3,000 -344 Descending Cleveland Center
Mon 05:02:58 PM 42.5717 -83.6481 167° South 175 201 3,000 55 Level Cleveland Center
Mon 05:03:53 PM 42.5258 -83.6372 170° South 172 198 3,100  Climbing Cleveland Center
Mon 05:04:53 PM 42.4783 -83.6208 166° South 175 201 3,000 -52 Descending Cleveland Center
Mon 05:05:48 PM 42.4350 -83.6133 173° South 169 194 3,000 -49 Level Cleveland Center
Mon 05:06:55 PM 42.3831 -83.6022 171° South 184 212 2,900 -179 Descending Cleveland Center
Mon 05:08:02 PM 42.3269 -83.5997 178° South 186 214 2,600 -400 Descending Cleveland Center
Mon 05:10:10 PM 42.2294 -83.5811 172° South 127 146 1,600 -469 Descending Cleveland Center

Login

Don't have an account? Register now (free) for customized features, flight alerts, and more!